Time;durP1;ratioP1;P1;durP2;ratioP2;P2;SDS_P1;SDS_P2;PMS_P1;PMS_P2;Temp;Humidity;BMP_temperature;BMP_pressure;BME280_temperature;BME280_humidity;BME280_pressure;Samples;Min_cycle;Max_cycle;Signal;HPM_P1;HPM_P2
2023/05/17 00:00:34;;;;;;;13.90;6.63;;;;;;;6.19;100.00;162184.22;5071774;28;20407;-60
2023/05/17 00:02:59;;;;;;;10.27;7.28;;;;;;;6.19;100.00;162184.22;5073640;28;20483;-60
2023/05/17 00:05:25;;;;;;;16.48;8.80;;;;;;;6.21;100.00;162188.22;5071598;28;20040;-60
2023/05/17 00:07:50;;;;;;;24.45;8.57;;;;;;;6.19;100.00;162185.53;5073446;28;20491;-59
2023/05/17 00:10:16;;;;;;;16.17;8.98;;;;;;;6.14;100.00;162170.75;5071783;28;20360;-59
2023/05/17 00:12:41;;;;;;;27.05;11.43;;;;;;;6.17;100.00;162178.81;5072960;28;20073;-60
2023/05/17 00:15:07;;;;;;;14.02;8.80;;;;;;;6.07;100.00;162151.94;5071921;28;20059;-60
2023/05/17 00:17:32;;;;;;;22.35;9.48;;;;;;;6.12;100.00;162165.38;5073070;28;20108;-59
2023/05/17 00:19:58;;;;;;;10.88;7.60;;;;;;;6.10;100.00;162159.97;5071568;28;20414;-59
2023/05/17 00:22:23;;;;;;;14.27;7.68;;;;;;;6.09;100.00;162158.66;5073270;28;20017;-60
2023/05/17 00:24:49;;;;;;;17.77;7.55;;;;;;;6.08;100.00;162154.56;5070075;28;20116;-60
2023/05/17 00:27:14;;;;;;;13.15;7.93;;;;;;;6.05;100.00;162146.53;5072619;28;20032;-60
2023/05/17 00:29:39;;;;;;;13.30;7.65;;;;;;;6.09;100.00;162157.28;5071491;28;20526;-60
2023/05/17 00:32:05;;;;;;;12.10;8.10;;;;;;;6.09;100.00;162157.28;5073010;28;20379;-59
2023/05/17 00:34:30;;;;;;;19.55;8.43;;;;;;;6.09;100.00;162157.28;5071023;28;20044;-60
2023/05/17 00:36:55;;;;;;;13.25;8.90;;;;;;;6.10;100.00;162159.97;5072991;28;20026;-60
2023/05/17 00:39:21;;;;;;;13.45;6.88;;;;;;;6.08;100.00;162155.94;5071475;28;20380;-60
2023/05/17 00:41:46;;;;;;;20.25;8.73;;;;;;;6.13;100.00;162168.06;5072012;28;20039;-60
2023/05/17 00:44:12;;;;;;;14.55;7.40;;;;;;;6.17;100.00;162178.81;5071226;28;20082;-59
2023/05/17 00:46:37;;;;;;;17.42;7.78;;;;;;;6.22;100.00;162190.94;5072636;28;20476;-60
2023/05/17 00:49:02;;;;;;;18.67;7.85;;;;;;;6.23;100.00;162194.94;5070952;28;20037;-59
2023/05/17 00:51:28;;;;;;;23.52;8.80;;;;;;;6.27;100.00;162205.75;5072213;28;20016;-60
2023/05/17 00:53:53;;;;;;;18.10;8.38;;;;;;;6.30;100.00;162212.47;5071107;28;20617;-60
2023/05/17 00:56:19;;;;;;;17.98;8.48;;;;;;;6.29;100.00;162211.09;5072395;28;20115;-59
2023/05/17 00:58:44;;;;;;;15.25;7.68;;;;;;;6.30;100.00;162213.78;5070916;28;20043;-59
2023/05/17 01:01:10;;;;;;;25.88;9.98;;;;;;;6.33;100.00;162220.53;5072206;28;20878;-59
2023/05/17 01:03:35;;;;;;;26.85;9.40;;;;;;;6.38;100.00;162232.63;5071157;28;20463;-59
2023/05/17 01:06:01;;;;;;;16.77;8.63;;;;;;;6.40;100.00;162239.41;5071951;28;20028;-61
2023/05/17 01:08:26;;;;;;;26.63;8.38;;;;;;;6.44;100.00;162248.84;5070718;28;20029;-58
2023/05/17 01:11:22;;;;;;;21.27;9.38;;;;;;;6.48;100.00;162259.59;5072252;28;20036;-60
2023/05/17 01:13:57;;;;;;;21.67;9.15;;;;;;;6.52;100.00;162270.31;5070666;28;20036;-60
2023/05/17 01:16:42;;;;;;;20.25;9.63;;;;;;;6.57;100.00;162283.81;5072218;28;20449;-60
2023/05/17 01:19:38;;;;;;;30.38;11.55;;;;;;;6.62;100.00;162297.28;5070311;28;20516;-60
2023/05/17 01:22:18;;;;;;;16.55;7.78;;;;;;;6.62;100.00;162297.28;5072172;28;20355;-60
2023/05/17 01:25:23;;;;;;;25.60;8.90;;;;;;;6.73;100.00;162324.22;5070169;28;20041;-60
2023/05/17 01:27:49;;;;;;;14.82;6.45;;;;;;;6.80;100.00;162343.06;5071717;28;20024;-60
2023/05/17 01:30:17;;;;;;;19.55;8.68;;;;;;;6.88;100.00;162364.63;5070478;28;20036;-60
2023/05/17 01:32:43;;;;;;;16.80;7.63;;;;;;;6.92;100.00;162375.38;5071160;28;20035;-60
2023/05/17 01:35:11;;;;;;;16.77;9.18;;;;;;;6.96;100.00;162386.13;5070253;28;20120;-61
2023/05/17 01:37:39;;;;;;;20.33;5.17;;;;;;;7.04;100.00;162404.97;5071807;28;20037;-60
2023/05/17 01:40:07;;;;;;;21.67;11.18;;;;;;;7.12;100.00;162426.53;5070428;28;20041;-60
2023/05/17 01:42:35;;;;;;;28.60;8.50;;;;;;;7.20;100.00;162446.75;5071497;28;20020;-61
2023/05/17 01:45:20;;;;;;;10.43;6.30;;;;;;;7.30;100.00;162475.03;5069823;28;20102;-61
2023/05/17 01:47:54;;;;;;;19.20;8.07;;;;;;;7.39;100.00;162496.59;5071379;28;20447;-61
2023/05/17 01:50:25;;;;;;;26.33;9.45;;;;;;;7.45;100.00;162514.06;5069961;28;20041;-60
2023/05/17 01:52:56;;;;;;;24.75;9.48;;;;;;;7.46;100.00;162515.44;5071056;28;20027;-60
2023/05/17 01:55:30;;;;;;;21.08;7.60;;;;;;;7.44;100.00;162510.06;5069531;28;20090;-61
2023/05/17 01:57:56;;;;;;;16.88;8.98;;;;;;;7.43;100.00;162507.34;5070876;28;20031;-60
2023/05/17 02:00:24;;;;;;;21.33;8.35;;;;;;;7.43;100.00;162507.34;5069795;28;20044;-59
2023/05/17 02:02:49;;;;;;;21.70;8.13;;;;;;;7.46;100.00;162515.44;5071489;28;20036;-59
2023/05/17 02:05:14;;;;;;;23.88;12.02;;;;;;;7.49;100.00;162523.50;5069512;28;20048;-60
2023/05/17 02:07:40;;;;;;;22.95;9.90;;;;;;;7.52;100.00;162530.28;5070966;28;20467;-60
2023/05/17 02:10:07;;;;;;;20.27;9.45;;;;;;;7.52;100.00;162531.59;5067867;28;20055;-60
2023/05/17 02:12:32;;;;;;;16.15;7.53;;;;;;;7.52;100.00;162530.28;5070180;28;20037;-58
2023/05/17 02:14:57;;;;;;;20.85;8.20;;;;;;;7.44;100.00;162510.06;5069845;28;20040;-60
2023/05/17 02:17:23;;;;;;;24.60;9.23;;;;;;;7.46;100.00;162516.78;5070683;28;20036;-60
2023/05/17 02:19:48;;;;;;;16.02;8.00;;;;;;;7.40;100.00;162499.28;5068927;28;20499;-59
2023/05/17 02:22:14;;;;;;;18.38;8.60;;;;;;;7.45;100.00;162512.75;5071049;28;20039;-60
2023/05/17 02:24:39;;;;;;;19.48;10.95;;;;;;;7.43;100.00;162507.34;5069405;28;20509;-60
2023/05/17 02:27:04;;;;;;;21.05;7.18;;;;;;;7.41;100.00;162502.00;5070636;28;20032;-60
2023/05/17 02:29:30;;;;;;;19.30;8.57;;;;;;;7.37;100.00;162491.19;5069003;28;20040;-60
2023/05/17 02:31:56;;;;;;;30.85;11.43;;;;;;;7.34;100.00;162483.09;5070557;28;20541;-60
2023/05/17 02:34:21;;;;;;;33.97;10.93;;;;;;;7.29;100.00;162472.34;5069331;28;20043;-60
2023/05/17 02:36:47;;;;;;;17.92;8.15;;;;;;;7.18;100.00;162442.72;5070250;28;20047;-60
2023/05/17 02:39:12;;;;;;;20.90;8.68;;;;;;;7.17;100.00;162440.03;5069474;28;20039;-60
2023/05/17 02:41:38;;;;;;;17.77;7.75;;;;;;;7.05;100.00;162409.03;5070328;28;20077;-61
2023/05/17 02:44:03;;;;;;;27.08;12.57;;;;;;;6.97;100.00;162388.81;5069505;28;20371;-60
2023/05/17 02:46:28;;;;;;;18.05;9.05;;;;;;;6.90;100.00;162368.66;5070736;28;20074;-60
2023/05/17 02:48:54;;;;;;;24.08;9.18;;;;;;;6.82;100.00;162349.78;5065650;28;20838;-60
2023/05/17 02:51:19;;;;;;;27.08;10.48;;;;;;;6.74;100.00;162328.25;5070575;28;20379;-60
2023/05/17 02:53:44;;;;;;;40.70;12.43;;;;;;;6.69;100.00;162314.81;5069001;28;20036;-60
2023/05/17 02:56:10;;;;;;;27.00;8.43;;;;;;;6.62;100.00;162295.94;5070220;28;20048;-60
2023/05/17 02:58:36;;;;;;;23.52;9.50;;;;;;;6.56;100.00;162281.13;5069096;28;20020;-60
2023/05/17 03:01:01;;;;;;;28.42;7.93;;;;;;;6.51;100.00;162267.69;5070454;28;20053;-59
2023/05/17 03:03:26;;;;;;;25.75;9.40;;;;;;;6.46;100.00;162255.56;5070001;28;20082;-59
2023/05/17 03:05:52;;;;;;;17.08;8.05;;;;;;;6.42;100.00;162243.44;5068627;28;21629;-59
2023/05/17 03:08:17;;;;;;;33.45;11.93;;;;;;;6.35;100.00;162227.28;5072875;28;20059;-60
2023/05/17 03:10:42;;;;;;;18.73;10.13;;;;;;;6.27;100.00;162205.75;5072284;28;20052;-60
2023/05/17 03:13:08;;;;;;;27.95;11.07;;;;;;;6.24;100.00;162197.66;5074548;28;20016;-59
2023/05/17 03:15:33;;;;;;;22.77;9.13;;;;;;;6.19;100.00;162185.53;5073025;28;20597;-59
2023/05/17 03:17:59;;;;;;;18.90;9.80;;;;;;;6.00;100.00;162134.41;5074205;28;20024;-59
2023/05/17 03:20:24;;;;;;;26.73;10.30;;;;;;;6.10;100.00;162159.97;5072947;28;20051;-59
2023/05/17 03:22:50;;;;;;;25.27;8.98;;;;;;;6.05;100.00;162146.53;5074719;28;20017;-60
2023/05/17 03:25:15;;;;;;;17.27;9.18;;;;;;;5.97;100.00;162126.25;5072137;28;20398;-60
2023/05/17 03:27:40;;;;;;;23.58;11.18;;;;;;;5.91;100.00;162110.13;5074048;28;20040;-61
2023/05/17 03:30:07;;;;;;;20.55;7.28;;;;;;;5.84;100.00;162093.97;5073080;28;20040;-60
2023/05/17 03:32:32;;;;;;;28.27;9.23;;;;;;;5.81;100.00;162084.56;5073318;28;20039;-59
2023/05/17 03:34:57;;;;;;;24.42;9.23;;;;;;;5.75;100.00;162069.75;5072888;28;20412;-61
2023/05/17 03:37:23;;;;;;;21.85;7.18;;;;;;;5.72;100.00;162063.03;5074113;28;20502;-61
2023/05/17 03:39:48;;;;;;;26.48;10.23;;;;;;;5.65;100.00;162044.19;5071984;28;20119;-61
2023/05/17 03:42:14;;;;;;;21.98;7.80;;;;;;;5.53;100.00;162013.25;5073802;28;20029;-60
2023/05/17 03:44:39;;;;;;;22.38;7.85;;;;;;;5.50;100.00;162005.19;5072276;28;20051;-61
2023/05/17 03:47:05;;;;;;;20.15;8.30;;;;;;;5.44;100.00;161989.03;5073245;28;20493;-61
2023/05/17 03:49:30;;;;;;;26.17;11.38;;;;;;;5.39;100.00;161975.59;5072341;28;20070;-60
2023/05/17 03:51:56;;;;;;;17.67;10.77;;;;;;;5.35;100.00;161966.16;5073912;28;20078;-60
2023/05/17 03:54:21;;;;;;;13.85;9.68;;;;;;;5.34;100.00;161963.47;5071913;28;20041;-60
2023/05/17 03:56:47;;;;;;;18.42;9.13;;;;;;;5.34;100.00;161963.47;5073075;28;20036;-60
2023/05/17 03:59:13;;;;;;;15.88;7.70;;;;;;;5.33;100.00;161960.78;5072619;28;20036;-59
2023/05/17 04:01:39;;;;;;;15.25;9.25;;;;;;;5.32;100.00;161958.13;5071949;28;20453;-60
2023/05/17 04:04:04;;;;;;;11.77;7.38;;;;;;;5.31;100.00;161955.44;5070801;28;20105;-60
2023/05/17 04:06:30;;;;;;;12.70;6.55;;;;;;;5.27;100.00;161944.66;5052530;28;20459;-59
2023/05/17 04:08:55;;;;;;;33.50;12.10;;;;;;;5.25;100.00;161939.25;5054308;28;20041;-61
2023/05/17 04:11:23;;;;;;;28.45;8.68;;;;;;;5.27;100.00;161944.66;5070003;28;20024;-60
2023/05/17 04:13:48;;;;;;;10.10;6.35;;;;;;;5.24;100.00;161936.59;5070373;28;20462;-60
2023/05/17 04:16:13;;;;;;;3.58;3.28;;;;;;;5.20;100.00;161927.19;5071231;28;20110;-60
2023/05/17 04:18:39;;;;;;;17.50;4.63;;;;;;;5.15;100.00;161912.38;5069485;28;20020;-59
2023/05/17 04:21:05;;;;;;;16.13;7.32;;;;;;;5.11;100.00;161901.59;5072042;28;20021;-60
2023/05/17 04:23:31;;;;;;;20.15;8.57;;;;;;;5.10;100.00;161898.94;5070330;28;20069;-60
2023/05/17 04:25:57;;;;;;;13.43;8.30;;;;;;;5.13;100.00;161906.97;5069530;28;20111;-60
2023/05/17 04:28:23;;;;;;;14.25;8.32;;;;;;;5.13;100.00;161908.34;5055816;28;20016;-60
2023/05/17 04:30:48;;;;;;;17.65;8.82;;;;;;;5.16;100.00;161915.06;5069796;28;20049;-60
2023/05/17 04:33:13;;;;;;;21.23;10.32;;;;;;;5.18;100.00;161920.41;5071515;28;20074;-60
2023/05/17 04:35:40;;;;;;;17.45;7.60;;;;;;;5.21;100.00;161928.50;5069658;28;20883;-60
2023/05/17 04:38:06;;;;;;;13.63;6.53;;;;;;;5.26;100.00;161941.94;5072030;28;20036;-60
2023/05/17 04:40:32;;;;;;;18.70;7.03;;;;;;;5.29;100.00;161950.03;5068861;28;20044;-60
2023/05/17 04:42:57;;;;;;;16.02;8.70;;;;;;;5.29;100.00;161950.03;5071627;28;20024;-60
2023/05/17 04:45:22;;;;;;;17.20;8.90;;;;;;;5.43;100.00;161986.38;5070344;28;20098;-59
2023/05/17 04:47:49;;;;;;;24.02;8.75;;;;;;;5.52;100.00;162009.22;5071424;28;20413;-59
2023/05/17 04:50:15;;;;;;;17.05;7.65;;;;;;;5.63;100.00;162038.81;5070566;28;20398;-60
2023/05/17 04:52:40;;;;;;;23.95;10.07;;;;;;;5.74;100.00;162065.72;5071422;28;20021;-59
2023/05/17 04:55:06;;;;;;;24.17;7.97;;;;;;;5.89;100.00;162106.09;5070093;28;20117;-59
2023/05/17 04:57:31;;;;;;;24.20;10.57;;;;;;;6.08;100.00;162154.56;5071488;28;20032;-60
2023/05/17 04:59:57;;;;;;;27.95;11.35;;;;;;;6.30;100.00;162213.78;5033898;28;1031057;-60
2023/05/17 05:02:22;;;;;;;26.95;8.93;;;;;;;6.54;100.00;162274.41;5072273;28;20479;-60
2023/05/17 05:04:47;;;;;;;35.00;9.88;;;;;;;6.72;100.00;162322.84;5070866;28;20105;-59
2023/05/17 05:07:13;;;;;;;20.25;8.35;;;;;;;6.83;100.00;162351.13;5072331;28;20039;-61
2023/05/17 05:09:38;;;;;;;26.67;10.35;;;;;;;6.91;100.00;162372.66;5070693;28;20021;-60
2023/05/17 05:12:04;;;;;;;29.90;9.98;;;;;;;6.99;100.00;162394.22;5072419;28;20414;-59
2023/05/17 05:14:29;;;;;;;30.20;8.18;;;;;;;7.11;100.00;162423.88;5070864;28;20029;-60
2023/05/17 05:16:55;;;;;;;28.27;9.07;;;;;;;7.22;100.00;162453.47;5072546;28;20031;-59
2023/05/17 05:19:20;;;;;;;18.38;9.52;;;;;;;7.29;100.00;162471.00;5072159;28;20017;-59
2023/05/17 05:21:45;;;;;;;26.42;8.10;;;;;;;7.41;100.00;162503.31;5064688;28;20365;-60
2023/05/17 05:24:11;;;;;;;21.63;9.23;;;;;;;7.52;100.00;162531.59;5061812;28;20028;-61
2023/05/17 05:26:36;;;;;;;22.48;7.88;;;;;;;7.56;100.00;162542.38;5055465;28;20047;-59
2023/05/17 05:29:02;;;;;;;25.50;8.13;;;;;;;7.68;100.00;162573.34;5052019;28;20442;-58
2023/05/17 05:31:28;;;;;;;28.95;9.48;;;;;;;7.71;100.00;162580.09;5049338;28;20059;-58
2023/05/17 05:33:53;;;;;;;25.48;6.85;;;;;;;7.77;100.00;162597.63;5051905;28;20091;-58
2023/05/17 05:36:18;;;;;;;33.03;8.57;;;;;;;7.94;100.00;162640.75;5050457;28;20400;-58
2023/05/17 05:38:44;;;;;;;26.52;7.72;;;;;;;8.04;100.00;162667.66;5051376;28;20357;-58
2023/05/17 05:41:09;;;;;;;20.90;7.47;;;;;;;8.28;100.00;162728.34;5050350;28;20100;-58
2023/05/17 05:43:36;;;;;;;26.10;8.40;;;;;;;8.35;100.00;162748.53;5057693;28;20387;-58
2023/05/17 05:46:01;;;;;;;27.92;8.10;;;;;;;8.41;100.00;162763.38;5069714;28;20052;-57
2023/05/17 05:48:27;;;;;;;16.23;7.18;;;;;;;8.61;100.00;162814.63;5071748;28;20348;-58
2023/05/17 05:50:52;;;;;;;21.38;6.03;;;;;;;8.74;100.00;162849.72;5070136;28;20037;-58
2023/05/17 05:53:17;;;;;;;24.67;6.13;;;;;;;8.86;100.00;162882.06;5071085;28;20024;-58
2023/05/17 05:55:43;;;;;;;12.90;4.18;;;;;;;8.85;100.00;162879.38;5069835;28;20041;-57
2023/05/17 05:58:08;;;;;;;20.30;7.22;;;;;;;8.88;100.00;162887.47;5071530;28;20020;-58
2023/05/17 06:00:34;;;;;;;14.95;5.25;;;;;;;8.87;100.00;162884.78;5069271;28;20561;-57
2023/05/17 06:02:59;;;;;;;34.22;6.70;;;;;;;8.85;100.00;162879.38;5071265;28;20063;-57
2023/05/17 06:05:25;;;;;;;21.83;7.15;;;;;;;8.85;100.00;162879.38;5069451;28;20028;-58
2023/05/17 06:07:50;;;;;;;27.73;7.10;;;;;;;8.83;100.00;162872.63;5070754;28;20083;-58
2023/05/17 06:10:16;;;;;;;28.40;7.05;;;;;;;8.83;100.00;162873.94;5069924;28;20380;-58
2023/05/17 06:12:41;;;;;;;25.85;4.47;;;;;;;8.82;100.00;162869.94;5070483;28;20069;-58
2023/05/17 06:15:07;;;;;;;18.90;5.78;;;;;;;8.84;100.00;162875.34;5069160;28;20037;-57
2023/05/17 06:17:32;;;;;;;20.58;5.00;;;;;;;8.99;100.00;162914.41;5070723;28;20016;-58
2023/05/17 06:19:58;;;;;;;28.80;8.05;;;;;;;9.13;100.00;162952.16;5069860;28;20044;-58
2023/05/17 06:22:23;;;;;;;15.50;5.43;;;;;;;9.15;100.00;162957.56;5070927;28;20031;-57
2023/05/17 06:24:48;;;;;;;16.90;7.10;;;;;;;9.22;100.00;162975.13;5066740;28;20542;-57
2023/05/17 06:27:14;;;;;;;10.75;4.45;;;;;;;9.40;100.00;163022.31;5070728;28;20028;-58
2023/05/17 06:29:39;;;;;;;14.80;4.10;;;;;;;9.49;100.00;163046.56;5061245;28;20033;-57
2023/05/17 06:32:05;;;;;;;22.23;6.53;;;;;;;9.37;100.00;163014.22;5050776;28;20025;-58
2023/05/17 06:34:30;;;;;;;14.65;4.80;;;;;;;9.52;100.00;163054.69;5057630;28;20068;-58
2023/05/17 06:36:55;;;;;;;24.15;6.75;;;;;;;9.87;100.00;163143.69;5070467;28;20394;-58
2023/05/17 06:39:21;;;;;;;15.27;4.82;;;;;;;9.84;100.00;163138.34;5068839;28;20029;-58
2023/05/17 06:41:46;;;;;;;19.00;5.40;;;;;;;9.90;100.00;163151.81;5063654;28;20135;-57
2023/05/17 06:44:12;;;;;;;9.43;4.75;;;;;;;10.24;100.00;163240.91;5060380;28;20033;-58
2023/05/17 06:46:37;;;;;;;8.40;3.40;;;;;;;10.45;100.00;163297.63;5070308;28;20028;-58
2023/05/17 06:49:03;;;;;;;11.73;4.45;;;;;;;10.45;100.00;163297.63;5069202;28;20029;-58
2023/05/17 06:51:28;;;;;;;16.15;4.20;;;;;;;10.47;100.00;163303.00;5070713;28;20028;-58
2023/05/17 06:53:53;;;;;;;11.23;4.50;;;;;;;10.53;100.00;163316.53;5068749;28;20044;-58
2023/05/17 06:56:19;;;;;;;14.23;5.25;;;;;;;10.89;100.00;163411.00;5070677;28;20043;-57
2023/05/17 06:58:44;;;;;;;10.40;4.88;;;;;;;10.85;100.00;163400.19;5068993;28;20387;-57
2023/05/17 07:01:10;;;;;;;18.98;4.70;;;;;;;10.79;100.00;163386.69;5070081;28;20117;-58
2023/05/17 07:03:35;;;;;;;13.55;3.90;;;;;;;10.76;100.00;163377.25;5054747;28;20468;-57
2023/05/17 07:06:00;;;;;;;15.82;5.32;;;;;;;10.89;100.00;163412.34;5049400;28;20021;-57
2023/05/17 07:08:26;;;;;;;10.35;2.33;;;;;;;10.76;100.00;163378.56;5050216;28;20024;-58
2023/05/17 07:10:52;;;;;;;13.98;4.50;;;;;;;10.70;100.00;163362.38;5049320;28;20045;-58
2023/05/17 07:13:17;;;;;;;18.75;4.88;;;;;;;10.84;100.00;163397.47;5050571;28;20029;-58
2023/05/17 07:15:43;;;;;;;5.78;2.88;;;;;;;10.72;100.00;163367.78;5048438;28;20427;-58
2023/05/17 07:18:09;;;;;;;21.73;5.03;;;;;;;10.62;100.00;163340.78;5050499;28;20492;-58
2023/05/17 07:20:34;;;;;;;10.18;3.83;;;;;;;10.76;100.00;163378.56;5048839;28;20048;-58
2023/05/17 07:22:59;;;;;;;9.70;4.03;;;;;;;10.78;100.00;163384.00;5050177;28;20032;-58
2023/05/17 07:25:25;;;;;;;13.35;4.10;;;;;;;10.78;100.00;163384.00;5048485;28;20041;-58
2023/05/17 07:27:50;;;;;;;8.48;2.63;;;;;;;10.58;100.00;163330.00;5050360;28;20029;-58
2023/05/17 07:30:15;;;;;;;13.93;3.60;;;;;;;10.38;100.00;163278.72;5048601;28;20048;-58
2023/05/17 07:32:41;;;;;;;8.00;3.25;;;;;;;10.24;100.00;163240.91;5050138;28;20021;-57
2023/05/17 07:35:06;;;;;;;11.70;3.42;;;;;;;10.19;100.00;163227.38;5048918;28;20128;-57
2023/05/17 07:37:31;;;;;;;9.50;3.72;;;;;;;10.02;100.00;163184.19;5049606;28;20546;-57
2023/05/17 07:39:57;;;;;;;9.48;3.95;;;;;;;10.50;100.00;163308.41;5048889;28;20193;-57
2023/05/17 07:42:22;;;;;;;16.23;4.57;;;;;;;10.45;100.00;163297.63;5050236;28;20033;-57
2023/05/17 07:44:48;;;;;;;10.43;3.35;;;;;;;10.61;100.00;163338.13;5031976;28;20047;-58
2023/05/17 07:47:14;;;;;;;9.68;4.22;;;;;;;10.27;100.00;163250.34;5030374;28;20104;-57
2023/05/17 07:49:39;;;;;;;11.50;2.97;;;;;;;10.10;100.00;163205.78;5038528;28;20384;-58
2023/05/17 07:52:05;;;;;;;7.88;3.63;;;;;;;10.29;100.00;163255.72;5049822;28;20071;-58
2023/05/17 07:54:30;;;;;;;13.30;3.13;;;;;;;10.12;100.00;163211.19;5050517;28;20408;-58
2023/05/17 07:56:56;;;;;;;12.00;3.78;;;;;;;10.08;100.00;163200.41;5053848;28;20021;-58
2023/05/17 07:59:22;;;;;;;9.02;2.75;;;;;;;10.40;100.00;163284.09;5052038;28;20044;-58
2023/05/17 08:01:47;;;;;;;4.53;2.70;;;;;;;10.73;100.00;163370.50;5053572;28;20053;-57
2023/05/17 08:04:15;;;;;;;14.10;3.55;;;;;;;11.07;100.00;163459.59;5056623;28;20045;-58
2023/05/17 08:06:42;;;;;;;19.20;4.22;;;;;;;10.77;100.00;163381.28;5072659;28;20479;-58
2023/05/17 08:09:07;;;;;;;8.63;3.03;;;;;;;10.95;100.00;163427.19;5072126;28;20047;-58
2023/05/17 08:11:33;;;;;;;11.25;3.17;;;;;;;11.19;100.00;163489.31;5072908;28;20020;-58
2023/05/17 08:14:00;;;;;;;5.68;2.17;;;;;;;11.05;100.00;163454.22;5071555;28;20070;-58
2023/05/17 08:16:25;;;;;;;11.10;3.05;;;;;;;11.26;100.00;163508.22;5073132;28;20509;-58
2023/05/17 08:18:51;;;;;;;9.80;2.90;;;;;;;11.43;100.00;163554.09;5072056;28;20041;-58
2023/05/17 08:21:16;;;;;;;7.07;2.22;;;;;;;11.39;100.00;163543.31;5072862;28;20108;-58
2023/05/17 08:23:42;;;;;;;11.35;3.25;;;;;;;11.84;100.00;163659.47;5071509;28;20016;-57
2023/05/17 08:26:07;;;;;;;8.88;4.32;;;;;;;12.47;100.00;163825.72;5072921;28;20031;-58
2023/05/17 08:28:33;;;;;;;6.50;2.80;;;;;;;12.88;100.00;163931.16;5071175;28;20028;-58
2023/05/17 08:30:59;;;;;;;8.77;2.30;;;;;;;13.14;100.00;164000.09;5073021;28;20009;-58
2023/05/17 08:33:24;;;;;;;11.88;2.38;;;;;;;12.50;100.00;163832.47;5073151;28;20063;-58
2023/05/17 08:35:51;;;;;;;8.85;3.50;;;;;;;11.94;100.00;163686.50;5071243;28;20109;-58
2023/05/17 08:38:17;;;;;;;20.05;4.22;;;;;;;11.26;100.00;163508.22;5073006;28;20035;-57
2023/05/17 08:40:43;;;;;;;11.20;2.30;;;;;;;11.34;100.00;163529.84;5071297;28;20402;-58
2023/05/17 08:43:11;;;;;;;6.57;3.60;;;;;;;11.28;100.00;163513.63;5072556;28;20060;-58
2023/05/17 08:45:37;;;;;;;5.65;2.28;;;;;;;11.49;100.00;163567.63;5071030;28;20050;-58
2023/05/17 08:48:04;;;;;;;3.63;2.58;;;;;;;11.66;100.00;163613.53;5072897;28;20025;-58
2023/05/17 08:50:32;;;;;;;6.05;2.72;;;;;;;11.66;100.00;163612.19;5070947;28;20051;-58
2023/05/17 08:52:58;;;;;;;7.30;2.45;;;;;;;12.28;100.00;163775.72;5072834;28;20055;-58
2023/05/17 08:55:26;;;;;;;6.97;1.83;;;;;;;12.08;100.00;163721.69;5071292;28;20384;-58
2023/05/17 08:57:53;;;;;;;11.35;3.38;;;;;;;11.91;100.00;163679.72;5072493;28;20491;-58
2023/05/17 09:00:20;;;;;;;8.27;2.83;;;;;;;11.98;100.00;163696.03;5070865;28;20063;-58
2023/05/17 09:02:47;;;;;;;9.50;2.53;;;;;;;12.15;100.00;163740.59;5072501;28;20025;-57
2023/05/17 09:05:14;;;;;;;8.25;2.33;;;;;;;12.17;100.00;163746.00;5069648;28;20123;-58
2023/05/17 09:07:39;;;;;;;6.90;2.28;;;;;;;11.59;100.00;163594.63;5072258;28;20054;-58
2023/05/17 09:10:05;;;;;;;11.57;4.07;;;;;;;11.46;100.00;163559.50;5071079;28;20036;-58
2023/05/17 09:12:33;;;;;;;10.95;3.38;;;;;;;11.62;100.00;163602.75;5072033;28;20517;-58
2023/05/17 09:15:12;;;;;;;5.75;2.53;;;;;;;12.10;100.00;163727.09;5071027;28;20115;-57
2023/05/17 09:17:39;;;;;;;5.78;2.40;;;;;;;12.47;100.00;163824.38;5072087;28;20043;-58
2023/05/17 09:20:05;;;;;;;9.75;3.85;;;;;;;13.05;100.00;163975.75;5070385;28;20043;-58
2023/05/17 09:22:31;;;;;;;18.45;4.32;;;;;;;12.73;100.00;163891.94;5072080;28;20035;-58
2023/05/17 09:24:58;;;;;;;10.50;4.55;;;;;;;12.40;100.00;163806.78;5064916;28;20041;-58
2023/05/17 09:27:24;;;;;;;8.63;2.75;;;;;;;12.48;100.00;163827.03;5056362;28;20167;-58
2023/05/17 09:29:49;;;;;;;6.22;2.25;;;;;;;12.55;100.00;163845.97;5050189;28;20435;-58
2023/05/17 09:32:16;;;;;;;9.07;1.83;;;;;;;12.73;100.00;163893.31;5052208;28;20021;-57
2023/05/17 09:34:44;;;;;;;16.77;3.97;;;;;;;13.36;100.00;164056.88;5049791;28;20056;-58
2023/05/17 09:37:17;;;;;;;11.77;3.35;;;;;;;13.22;100.00;164021.69;5051888;28;20025;-58
2023/05/17 09:39:44;;;;;;;8.52;2.33;;;;;;;13.51;100.00;164097.50;5049968;28;20504;-58
2023/05/17 09:42:11;;;;;;;7.25;3.17;;;;;;;13.93;100.00;164208.38;5051557;28;20029;-58
2023/05/17 09:44:52;;;;;;;10.18;2.58;;;;;;;13.56;100.00;164109.63;5064620;28;20041;-58
2023/05/17 09:47:28;;;;;;;6.70;2.65;;;;;;;12.93;100.00;163944.66;5071643;28;20123;-58
2023/05/17 09:50:02;;;;;;;11.40;3.08;;;;;;;12.95;100.00;163951.41;5066296;28;20032;-58
2023/05/17 09:52:30;;;;;;;8.00;2.85;;;;;;;13.10;100.00;163989.25;5071415;28;20066;-58
2023/05/17 09:54:59;;;;;;;11.80;3.25;;;;;;;13.21;100.00;164019.03;5070049;28;20074;-58
2023/05/17 09:57:36;;;;;;;16.17;3.10;;;;;;;12.72;100.00;163889.22;5070714;28;20082;-58
2023/05/17 10:00:08;;;;;;;12.00;2.45;;;;;;;12.42;100.00;163810.84;5070006;28;20040;-58
2023/05/17 10:02:36;;;;;;;9.27;3.28;;;;;;;13.02;100.00;163970.31;5071431;28;20028;-58
2023/05/17 10:05:04;;;;;;;9.93;2.60;;;;;;;13.52;100.00;164098.81;5058813;28;20107;-58
2023/05/17 10:07:30;;;;;;;8.15;2.95;;;;;;;13.79;100.00;164170.50;5050903;28;20021;-58
2023/05/17 10:09:57;;;;;;;8.90;3.00;;;;;;;13.68;100.00;164142.09;5069430;28;20037;-58
2023/05/17 10:12:24;;;;;;;6.45;3.55;;;;;;;13.43;100.00;164077.19;5071111;28;20048;-58
2023/05/17 10:14:51;;;;;;;11.73;4.03;;;;;;;13.52;100.00;164098.81;5069717;28;20127;-58
2023/05/17 10:17:18;;;;;;;5.32;2.35;;;;;;;13.84;100.00;164184.00;5071172;28;20077;-58
2023/05/17 10:19:45;;;;;;;11.30;4.57;;;;;;;13.94;100.00;164211.09;5069273;28;20039;-58
2023/05/17 10:22:11;;;;;;;15.63;4.13;;;;;;;13.87;100.00;164192.16;5071004;28;20082;-58
2023/05/17 10:24:38;;;;;;;8.52;3.28;;;;;;;14.04;100.00;164235.38;5068739;28;20488;-58
2023/05/17 10:27:06;;;;;;;11.95;4.13;;;;;;;14.95;100.00;164474.97;5070401;28;20048;-58
2023/05/17 10:29:33;;;;;;;11.73;3.03;;;;;;;15.25;100.00;164552.09;5069346;28;20041;-58
2023/05/17 10:32:03;;;;;;;9.02;3.10;;;;;;;15.81;100.00;164701.03;5071192;28;20025;-58
2023/05/17 10:34:29;;;;;;;18.23;4.50;;;;;;;16.22;100.00;164806.69;5068847;28;20040;-58
2023/05/17 10:36:56;;;;;;;10.13;3.28;;;;;;;16.09;100.00;164774.19;5051075;28;20504;-58
2023/05/17 10:39:22;;;;;;;12.27;4.90;;;;;;;15.68;100.00;164665.78;5037442;28;20040;-58
2023/05/17 10:41:51;;;;;;;6.28;2.15;;;;;;;15.11;100.00;164516.91;5050339;28;20029;-58
2023/05/17 10:44:18;;;;;;;6.80;2.95;;;;;;;14.96;100.00;164476.28;5042325;28;20037;-58
2023/05/17 10:46:52;;;;;;;7.10;2.13;;;;;;;15.34;100.00;164577.78;5039421;28;20078;-58
2023/05/17 10:49:17;;;;;;;16.88;4.65;;;;;;;15.21;100.00;164544.00;5048830;28;20041;-58
2023/05/17 10:51:44;;;;;;;13.98;4.07;;;;;;;14.83;100.00;164443.84;5050553;28;20063;-58
2023/05/17 10:54:11;;;;;;;15.88;5.53;;;;;;;14.19;100.00;164275.97;5049219;28;20492;-58
2023/05/17 10:56:46;;;;;;;12.70;3.75;;;;;;;13.73;100.00;164154.28;5050097;28;20032;-58
2023/05/17 10:59:22;;;;;;;15.23;3.60;;;;;;;13.27;100.00;164035.22;5049354;28;20093;-57
2023/05/17 11:01:53;;;;;;;9.02;2.97;;;;;;;13.41;100.00;164070.44;5050293;28;20045;-58
2023/05/17 11:04:24;;;;;;;9.52;4.07;;;;;;;13.68;100.00;164142.09;5048862;28;20044;-58
2023/05/17 11:07:13;;;;;;;14.45;2.50;;;;;;;13.62;100.00;164127.22;5050750;28;20021;-59
2023/05/17 11:09:39;;;;;;;12.48;3.28;;;;;;;13.61;100.00;164123.19;5048729;28;20040;-58
2023/05/17 11:12:09;;;;;;;4.25;2.17;;;;;;;13.35;100.00;164054.16;5050253;28;20025;-58